Matrimony, North Carolina
Current Conditions -  °F | °C
As of 3:35 PM on Tuesday 21 Oct 2014 (Local Time) from KSIF Reporting Station
Scattered Clouds Scattered Clouds  
Wind Chill: 72°   Ceiling: Unl
Heat Index: 72°   Visibility: 10mi
Dew Point: 44°   Wind: 9mph
Humidity: 36%   Direction: 280°W
Pressure: 29.85"   Gusts: 16mph
Location:  36.4831°N, 79.9235°W
Report Text: KSIF 211935Z AUTO 28008G14KT 250V320 10SM SCT065 SCT080 22/07 A2985 RMK AO2 T02240068
Loading
Personal Weather Stations






























Interactive Weather Map
Tropical Storm Tracking
New forecast layout! Learn more

10-Day Weather Forecast

Advertisements
Track Severe Weather on mobile